sensor_id;sensor_type;location;lat;lon;timestamp;temperature;humidity
30063;DHT22;16889;67.864;24.990;2023-06-14T00:00:54;6.30;99.90
30063;DHT22;16889;67.864;24.990;2023-06-14T00:05:43;6.20;99.90
30063;DHT22;16889;67.864;24.990;2023-06-14T00:10:29;6.10;99.90
30063;DHT22;16889;67.864;24.990;2023-06-14T00:15:16;5.90;99.90
30063;DHT22;16889;67.864;24.990;2023-06-14T00:20:04;5.90;99.90
30063;DHT22;16889;67.864;24.990;2023-06-14T00:24:53;5.80;99.90
30063;DHT22;16889;67.864;24.990;2023-06-14T00:29:39;5.70;99.90
30063;DHT22;16889;67.864;24.990;2023-06-14T00:34:25;5.70;99.90
30063;DHT22;16889;67.864;24.990;2023-06-14T00:39:11;5.70;99.90
30063;DHT22;16889;67.864;24.990;2023-06-14T00:43:57;5.60;99.90
30063;DHT22;16889;67.864;24.990;2023-06-14T00:48:44;5.50;99.90
30063;DHT22;16889;67.864;24.990;2023-06-14T00:53:31;5.70;99.90
30063;DHT22;16889;67.864;24.990;2023-06-14T00:58:20;5.60;99.90
30063;DHT22;16889;67.864;24.990;2023-06-14T01:03:07;5.60;99.90
30063;DHT22;16889;67.864;24.990;2023-06-14T01:13:15;5.90;99.90
30063;DHT22;16889;67.864;24.990;2023-06-14T01:18:04;5.90;99.90
30063;DHT22;16889;67.864;24.990;2023-06-14T01:22:54;5.80;99.90
30063;DHT22;16889;67.864;24.990;2023-06-14T01:27:40;5.80;99.90
30063;DHT22;16889;67.864;24.990;2023-06-14T01:32:27;5.90;99.90
30063;DHT22;16889;67.864;24.990;2023-06-14T01:37:14;6.10;99.90
30063;DHT22;16889;67.864;24.990;2023-06-14T01:42:01;6.40;99.90
30063;DHT22;16889;67.864;24.990;2023-06-14T01:46:48;6.60;99.90
30063;DHT22;16889;67.864;24.990;2023-06-14T01:51:34;6.70;99.90
30063;DHT22;16889;67.864;24.990;2023-06-14T01:56:21;6.90;99.90
30063;DHT22;16889;67.864;24.990;2023-06-14T02:01:07;7.00;99.90
30063;DHT22;16889;67.864;24.990;2023-06-14T02:05:53;7.20;99.90
30063;DHT22;16889;67.864;24.990;2023-06-14T02:10:41;7.50;99.90
30063;DHT22;16889;67.864;24.990;2023-06-14T02:15:27;7.70;99.90
30063;DHT22;16889;67.864;24.990;2023-06-14T02:20:19;7.70;99.90
30063;DHT22;16889;67.864;24.990;2023-06-14T02:25:06;7.80;99.90
30063;DHT22;16889;67.864;24.990;2023-06-14T02:29:53;8.00;99.90
30063;DHT22;16889;67.864;24.990;2023-06-14T02:34:39;8.30;99.90
30063;DHT22;16889;67.864;24.990;2023-06-14T02:39:26;8.60;99.90
30063;DHT22;16889;67.864;24.990;2023-06-14T02:44:13;8.80;99.90
30063;DHT22;16889;67.864;24.990;2023-06-14T02:49:00;9.10;99.90
30063;DHT22;16889;67.864;24.990;2023-06-14T02:53:46;9.60;99.90
30063;DHT22;16889;67.864;24.990;2023-06-14T02:58:32;10.50;99.90
30063;DHT22;16889;67.864;24.990;2023-06-14T03:03:18;10.80;99.90
30063;DHT22;16889;67.864;24.990;2023-06-14T03:08:07;11.30;99.90
30063;DHT22;16889;67.864;24.990;2023-06-14T03:12:54;11.60;98.50
30063;DHT22;16889;67.864;24.990;2023-06-14T03:17:40;11.60;98.30
30063;DHT22;16889;67.864;24.990;2023-06-14T03:22:26;11.60;98.00
30063;DHT22;16889;67.864;24.990;2023-06-14T03:27:12;11.70;97.40
30063;DHT22;16889;67.864;24.990;2023-06-14T03:32:00;11.90;96.90
30063;DHT22;16889;67.864;24.990;2023-06-14T03:36:46;12.10;95.70
30063;DHT22;16889;67.864;24.990;2023-06-14T03:41:32;12.00;94.90
30063;DHT22;16889;67.864;24.990;2023-06-14T03:46:18;12.10;95.10
30063;DHT22;16889;67.864;24.990;2023-06-14T03:51:04;12.20;94.90
30063;DHT22;16889;67.864;24.990;2023-06-14T03:55:50;12.00;93.50
30063;DHT22;16889;67.864;24.990;2023-06-14T04:00:39;12.20;93.90
30063;DHT22;16889;67.864;24.990;2023-06-14T04:05:25;13.40;92.20
30063;DHT22;16889;67.864;24.990;2023-06-14T04:10:15;14.60;89.00
30063;DHT22;16889;67.864;24.990;2023-06-14T04:15:01;15.70;82.80
30063;DHT22;16889;67.864;24.990;2023-06-14T04:19:48;16.50;77.90
30063;DHT22;16889;67.864;24.990;2023-06-14T04:24:34;16.80;70.80
30063;DHT22;16889;67.864;24.990;2023-06-14T04:29:20;16.70;68.40
30063;DHT22;16889;67.864;24.990;2023-06-14T04:34:06;17.30;66.70
30063;DHT22;16889;67.864;24.990;2023-06-14T04:38:52;18.20;63.10
30063;DHT22;16889;67.864;24.990;2023-06-14T04:43:39;18.40;60.00
30063;DHT22;16889;67.864;24.990;2023-06-14T04:48:26;19.00;59.50
30063;DHT22;16889;67.864;24.990;2023-06-14T04:53:12;19.90;55.30
30063;DHT22;16889;67.864;24.990;2023-06-14T04:57:58;20.10;55.20
30063;DHT22;16889;67.864;24.990;2023-06-14T05:02:45;20.50;53.70
30063;DHT22;16889;67.864;24.990;2023-06-14T05:07:32;22.70;51.00
30063;DHT22;16889;67.864;24.990;2023-06-14T05:12:19;25.30;46.00
30063;DHT22;16889;67.864;24.990;2023-06-14T05:17:06;29.40;38.60
30063;DHT22;16889;67.864;24.990;2023-06-14T05:21:52;30.40;34.30
30063;DHT22;16889;67.864;24.990;2023-06-14T05:26:38;30.60;32.50
30063;DHT22;16889;67.864;24.990;2023-06-14T05:31:24;29.20;31.90
30063;DHT22;16889;67.864;24.990;2023-06-14T05:36:11;26.80;34.20
30063;DHT22;16889;67.864;24.990;2023-06-14T05:40:57;23.80;38.10
30063;DHT22;16889;67.864;24.990;2023-06-14T05:45:43;22.50;40.70
30063;DHT22;16889;67.864;24.990;2023-06-14T05:50:29;21.50;45.50
30063;DHT22;16889;67.864;24.990;2023-06-14T05:55:16;21.00;44.20
30063;DHT22;16889;67.864;24.990;2023-06-14T06:00:03;20.30;46.90
30063;DHT22;16889;67.864;24.990;2023-06-14T06:05:00;19.90;46.70
30063;DHT22;16889;67.864;24.990;2023-06-14T06:09:46;19.20;48.30
30063;DHT22;16889;67.864;24.990;2023-06-14T06:14:31;18.80;49.50
30063;DHT22;16889;67.864;24.990;2023-06-14T06:19:18;18.30;48.50
30063;DHT22;16889;67.864;24.990;2023-06-14T06:24:05;17.70;48.70
30063;DHT22;16889;67.864;24.990;2023-06-14T06:28:51;17.30;51.60
30063;DHT22;16889;67.864;24.990;2023-06-14T06:33:37;18.00;50.20
30063;DHT22;16889;67.864;24.990;2023-06-14T06:38:25;18.30;49.50
30063;DHT22;16889;67.864;24.990;2023-06-14T06:43:11;18.50;49.80
30063;DHT22;16889;67.864;24.990;2023-06-14T06:48:02;18.40;49.00
30063;DHT22;16889;67.864;24.990;2023-06-14T06:52:48;18.80;50.30
30063;DHT22;16889;67.864;24.990;2023-06-14T06:57:34;19.50;49.70
30063;DHT22;16889;67.864;24.990;2023-06-14T07:02:20;19.00;47.00
30063;DHT22;16889;67.864;24.990;2023-06-14T07:07:06;19.00;49.30
30063;DHT22;16889;67.864;24.990;2023-06-14T07:11:54;20.70;44.40
30063;DHT22;16889;67.864;24.990;2023-06-14T07:16:40;21.40;43.10
30063;DHT22;16889;67.864;24.990;2023-06-14T07:21:26;22.30;43.50
30063;DHT22;16889;67.864;24.990;2023-06-14T07:26:12;21.50;42.50
30063;DHT22;16889;67.864;24.990;2023-06-14T07:30:58;21.20;43.00
30063;DHT22;16889;67.864;24.990;2023-06-14T07:35:44;21.50;43.10
30063;DHT22;16889;67.864;24.990;2023-06-14T07:40:31;21.70;42.40
30063;DHT22;16889;67.864;24.990;2023-06-14T07:45:18;23.90;39.50
30063;DHT22;16889;67.864;24.990;2023-06-14T07:50:05;23.20;40.00
30063;DHT22;16889;67.864;24.990;2023-06-14T07:54:51;23.10;40.70
30063;DHT22;16889;67.864;24.990;2023-06-14T07:59:37;22.50;40.40
30063;DHT22;16889;67.864;24.990;2023-06-14T08:04:23;20.90;43.90
30063;DHT22;16889;67.864;24.990;2023-06-14T08:09:11;19.90;44.60
30063;DHT22;16889;67.864;24.990;2023-06-14T08:13:57;20.70;46.50
30063;DHT22;16889;67.864;24.990;2023-06-14T08:18:43;23.10;42.30
30063;DHT22;16889;67.864;24.990;2023-06-14T08:23:29;25.10;38.50
30063;DHT22;16889;67.864;24.990;2023-06-14T08:28:14;27.70;33.90
30063;DHT22;16889;67.864;24.990;2023-06-14T08:33:01;26.30;36.10
30063;DHT22;16889;67.864;24.990;2023-06-14T08:37:47;28.60;33.30
30063;DHT22;16889;67.864;24.990;2023-06-14T08:42:33;28.10;32.80
30063;DHT22;16889;67.864;24.990;2023-06-14T08:47:20;27.10;34.20
30063;DHT22;16889;67.864;24.990;2023-06-14T08:52:08;26.10;37.20
30063;DHT22;16889;67.864;24.990;2023-06-14T08:56:59;25.50;35.60
30063;DHT22;16889;67.864;24.990;2023-06-14T09:01:45;24.40;37.90
30063;DHT22;16889;67.864;24.990;2023-06-14T09:06:31;24.20;38.20
30063;DHT22;16889;67.864;24.990;2023-06-14T09:11:18;23.30;39.60
30063;DHT22;16889;67.864;24.990;2023-06-14T09:16:08;21.70;43.10
30063;DHT22;16889;67.864;24.990;2023-06-14T09:20:54;22.00;43.50
30063;DHT22;16889;67.864;24.990;2023-06-14T09:25:45;22.30;41.80
30063;DHT22;16889;67.864;24.990;2023-06-14T09:30:31;22.10;43.00
30063;DHT22;16889;67.864;24.990;2023-06-14T09:35:18;22.10;40.80
30063;DHT22;16889;67.864;24.990;2023-06-14T09:40:04;22.10;42.60
30063;DHT22;16889;67.864;24.990;2023-06-14T09:44:51;22.70;42.10
30063;DHT22;16889;67.864;24.990;2023-06-14T09:49:38;24.60;40.50
30063;DHT22;16889;67.864;24.990;2023-06-14T09:54:25;26.10;36.50
30063;DHT22;16889;67.864;24.990;2023-06-14T09:59:13;26.10;34.50
30063;DHT22;16889;67.864;24.990;2023-06-14T10:04:05;24.60;36.90
30063;DHT22;16889;67.864;24.990;2023-06-14T10:08:57;25.70;36.40
30063;DHT22;16889;67.864;24.990;2023-06-14T10:13:45;24.90;38.00
30063;DHT22;16889;67.864;24.990;2023-06-14T10:23:46;25.20;35.20
30063;DHT22;16889;67.864;24.990;2023-06-14T10:28:32;25.40;35.40
30063;DHT22;16889;67.864;24.990;2023-06-14T10:33:22;26.80;35.60
30063;DHT22;16889;67.864;24.990;2023-06-14T10:38:09;26.60;35.90
30063;DHT22;16889;67.864;24.990;2023-06-14T10:42:57;24.80;35.30
30063;DHT22;16889;67.864;24.990;2023-06-14T10:47:42;23.60;37.60
30063;DHT22;16889;67.864;24.990;2023-06-14T10:52:29;24.20;36.00
30063;DHT22;16889;67.864;24.990;2023-06-14T10:57:15;24.20;38.00
30063;DHT22;16889;67.864;24.990;2023-06-14T11:12:11;22.40;40.80
30063;DHT22;16889;67.864;24.990;2023-06-14T11:16:58;23.30;41.00
30063;DHT22;16889;67.864;24.990;2023-06-14T11:21:49;23.10;41.20
30063;DHT22;16889;67.864;24.990;2023-06-14T11:26:38;22.60;40.50
30063;DHT22;16889;67.864;24.990;2023-06-14T11:31:24;22.40;41.60
30063;DHT22;16889;67.864;24.990;2023-06-14T11:36:11;22.50;42.30
30063;DHT22;16889;67.864;24.990;2023-06-14T11:41:00;22.40;41.60
30063;DHT22;16889;67.864;24.990;2023-06-14T11:45:48;22.20;40.60
30063;DHT22;16889;67.864;24.990;2023-06-14T11:50:38;22.10;40.20
30063;DHT22;16889;67.864;24.990;2023-06-14T11:55:24;22.10;40.80
30063;DHT22;16889;67.864;24.990;2023-06-14T12:00:11;22.40;40.50
30063;DHT22;16889;67.864;24.990;2023-06-14T12:05:04;22.30;39.20
30063;DHT22;16889;67.864;24.990;2023-06-14T12:14:41;22.40;40.60
30063;DHT22;16889;67.864;24.990;2023-06-14T12:19:28;22.40;41.80
30063;DHT22;16889;67.864;24.990;2023-06-14T12:24:14;22.60;40.00
30063;DHT22;16889;67.864;24.990;2023-06-14T12:29:00;22.90;37.80
30063;DHT22;16889;67.864;24.990;2023-06-14T12:33:46;23.10;39.80
30063;DHT22;16889;67.864;24.990;2023-06-14T12:38:34;23.20;38.30
30063;DHT22;16889;67.864;24.990;2023-06-14T12:43:20;23.30;36.60
30063;DHT22;16889;67.864;24.990;2023-06-14T12:48:06;23.40;37.70
30063;DHT22;16889;67.864;24.990;2023-06-14T12:52:54;23.40;37.30
30063;DHT22;16889;67.864;24.990;2023-06-14T12:57:40;23.40;36.40
30063;DHT22;16889;67.864;24.990;2023-06-14T13:02:26;23.30;37.80
30063;DHT22;16889;67.864;24.990;2023-06-14T13:07:12;23.40;38.90
30063;DHT22;16889;67.864;24.990;2023-06-14T13:12:00;23.70;39.50
30063;DHT22;16889;67.864;24.990;2023-06-14T13:16:47;23.90;37.50
30063;DHT22;16889;67.864;24.990;2023-06-14T13:21:33;24.30;37.00
30063;DHT22;16889;67.864;24.990;2023-06-14T13:26:19;24.30;37.00
30063;DHT22;16889;67.864;24.990;2023-06-14T13:31:04;24.00;37.30
30063;DHT22;16889;67.864;24.990;2023-06-14T13:35:51;23.60;39.00
30063;DHT22;16889;67.864;24.990;2023-06-14T13:40:38;23.60;38.40
30063;DHT22;16889;67.864;24.990;2023-06-14T13:45:24;23.40;38.20
30063;DHT22;16889;67.864;24.990;2023-06-14T13:50:10;23.30;39.80
30063;DHT22;16889;67.864;24.990;2023-06-14T13:54:56;23.20;38.20
30063;DHT22;16889;67.864;24.990;2023-06-14T13:59:43;23.50;38.80
30063;DHT22;16889;67.864;24.990;2023-06-14T14:04:32;23.90;37.70
30063;DHT22;16889;67.864;24.990;2023-06-14T14:09:19;23.30;37.90
30063;DHT22;16889;67.864;24.990;2023-06-14T14:14:05;23.40;39.80
30063;DHT22;16889;67.864;24.990;2023-06-14T14:18:51;23.50;40.30
30063;DHT22;16889;67.864;24.990;2023-06-14T14:23:36;23.50;40.60
30063;DHT22;16889;67.864;24.990;2023-06-14T14:28:23;23.40;38.70
30063;DHT22;16889;67.864;24.990;2023-06-14T14:33:09;23.10;43.00
30063;DHT22;16889;67.864;24.990;2023-06-14T14:38:01;23.50;40.20
30063;DHT22;16889;67.864;24.990;2023-06-14T14:42:48;23.10;37.70
30063;DHT22;16889;67.864;24.990;2023-06-14T14:47:34;22.60;38.70
30063;DHT22;16889;67.864;24.990;2023-06-14T14:52:20;22.80;38.50
30063;DHT22;16889;67.864;24.990;2023-06-14T14:57:06;22.80;37.70
30063;DHT22;16889;67.864;24.990;2023-06-14T15:01:52;22.30;36.90
30063;DHT22;16889;67.864;24.990;2023-06-14T15:06:38;22.00;38.90
30063;DHT22;16889;67.864;24.990;2023-06-14T15:11:25;22.40;37.10
30063;DHT22;16889;67.864;24.990;2023-06-14T15:16:11;22.50;37.20
30063;DHT22;16889;67.864;24.990;2023-06-14T15:20:57;22.60;38.40
30063;DHT22;16889;67.864;24.990;2023-06-14T15:25:43;22.60;37.50
30063;DHT22;16889;67.864;24.990;2023-06-14T15:30:29;22.60;38.50
30063;DHT22;16889;67.864;24.990;2023-06-14T15:35:16;22.60;37.10
30063;DHT22;16889;67.864;24.990;2023-06-14T15:40:05;22.70;37.60
30063;DHT22;16889;67.864;24.990;2023-06-14T15:44:51;22.60;38.90
30063;DHT22;16889;67.864;24.990;2023-06-14T15:49:37;22.30;39.50
30063;DHT22;16889;67.864;24.990;2023-06-14T15:54:23;22.00;37.50
30063;DHT22;16889;67.864;24.990;2023-06-14T15:59:09;21.80;38.40
30063;DHT22;16889;67.864;24.990;2023-06-14T16:03:55;21.50;36.10
30063;DHT22;16889;67.864;24.990;2023-06-14T16:08:43;21.30;38.00
30063;DHT22;16889;67.864;24.990;2023-06-14T16:13:30;21.30;39.10
30063;DHT22;16889;67.864;24.990;2023-06-14T16:18:16;21.30;37.80
30063;DHT22;16889;67.864;24.990;2023-06-14T16:23:01;21.30;38.10
30063;DHT22;16889;67.864;24.990;2023-06-14T16:27:47;21.20;37.90
30063;DHT22;16889;67.864;24.990;2023-06-14T16:32:33;20.90;38.80
30063;DHT22;16889;67.864;24.990;2023-06-14T16:37:19;20.80;40.60
30063;DHT22;16889;67.864;24.990;2023-06-14T16:42:07;20.80;38.90
30063;DHT22;16889;67.864;24.990;2023-06-14T16:46:53;20.70;39.30
30063;DHT22;16889;67.864;24.990;2023-06-14T16:51:39;20.60;39.80
30063;DHT22;16889;67.864;24.990;2023-06-14T16:56:25;20.70;39.80
30063;DHT22;16889;67.864;24.990;2023-06-14T17:01:13;20.70;40.30
30063;DHT22;16889;67.864;24.990;2023-06-14T17:05:59;20.40;39.30
30063;DHT22;16889;67.864;24.990;2023-06-14T17:10:45;20.30;40.90
30063;DHT22;16889;67.864;24.990;2023-06-14T17:15:31;20.30;42.50
30063;DHT22;16889;67.864;24.990;2023-06-14T17:20:17;20.00;42.30
30063;DHT22;16889;67.864;24.990;2023-06-14T17:25:04;19.80;43.30
30063;DHT22;16889;67.864;24.990;2023-06-14T17:29:51;19.70;44.30
30063;DHT22;16889;67.864;24.990;2023-06-14T17:34:37;19.80;44.10
30063;DHT22;16889;67.864;24.990;2023-06-14T17:39:23;19.80;45.00
30063;DHT22;16889;67.864;24.990;2023-06-14T17:44:09;19.70;44.50
30063;DHT22;16889;67.864;24.990;2023-06-14T17:48:55;19.60;42.30
30063;DHT22;16889;67.864;24.990;2023-06-14T17:53:41;19.50;44.10
30063;DHT22;16889;67.864;24.990;2023-06-14T17:58:27;19.60;45.90
30063;DHT22;16889;67.864;24.990;2023-06-14T18:03:13;19.70;45.60
30063;DHT22;16889;67.864;24.990;2023-06-14T18:07:59;19.60;47.10
30063;DHT22;16889;67.864;24.990;2023-06-14T18:12:45;19.40;47.30
30063;DHT22;16889;67.864;24.990;2023-06-14T18:17:31;19.20;48.40
30063;DHT22;16889;67.864;24.990;2023-06-14T18:22:17;19.00;48.50
30063;DHT22;16889;67.864;24.990;2023-06-14T18:27:03;18.70;50.30
30063;DHT22;16889;67.864;24.990;2023-06-14T18:31:50;18.20;49.40
30063;DHT22;16889;67.864;24.990;2023-06-14T18:36:36;18.00;50.70
30063;DHT22;16889;67.864;24.990;2023-06-14T18:41:24;17.80;51.40
30063;DHT22;16889;67.864;24.990;2023-06-14T18:46:11;17.90;51.70
30063;DHT22;16889;67.864;24.990;2023-06-14T18:50:57;17.70;52.60
30063;DHT22;16889;67.864;24.990;2023-06-14T18:55:43;17.60;53.00
30063;DHT22;16889;67.864;24.990;2023-06-14T19:00:29;17.40;54.40
30063;DHT22;16889;67.864;24.990;2023-06-14T19:05:16;17.20;54.20
30063;DHT22;16889;67.864;24.990;2023-06-14T19:10:02;17.00;54.20
30063;DHT22;16889;67.864;24.990;2023-06-14T19:14:48;17.10;55.00
30063;DHT22;16889;67.864;24.990;2023-06-14T19:19:34;17.00;55.40
30063;DHT22;16889;67.864;24.990;2023-06-14T19:24:20;16.90;57.00
30063;DHT22;16889;67.864;24.990;2023-06-14T19:29:06;16.70;58.30
30063;DHT22;16889;67.864;24.990;2023-06-14T19:33:52;16.50;59.30
30063;DHT22;16889;67.864;24.990;2023-06-14T19:38:38;16.30;61.00
30063;DHT22;16889;67.864;24.990;2023-06-14T19:43:24;16.00;60.30
30063;DHT22;16889;67.864;24.990;2023-06-14T19:48:10;16.00;57.20
30063;DHT22;16889;67.864;24.990;2023-06-14T19:52:56;15.80;56.90
30063;DHT22;16889;67.864;24.990;2023-06-14T19:57:42;15.80;55.80
30063;DHT22;16889;67.864;24.990;2023-06-14T20:02:29;15.80;56.90
30063;DHT22;16889;67.864;24.990;2023-06-14T20:07:15;15.80;56.80
30063;DHT22;16889;67.864;24.990;2023-06-14T20:12:01;15.70;57.50
30063;DHT22;16889;67.864;24.990;2023-06-14T20:16:47;15.60;56.70
30063;DHT22;16889;67.864;24.990;2023-06-14T20:21:33;15.70;56.80
30063;DHT22;16889;67.864;24.990;2023-06-14T20:26:19;15.70;57.10
30063;DHT22;16889;67.864;24.990;2023-06-14T20:31:05;15.60;56.80
30063;DHT22;16889;67.864;24.990;2023-06-14T20:35:53;15.50;57.40
30063;DHT22;16889;67.864;24.990;2023-06-14T20:40:39;15.50;58.00
30063;DHT22;16889;67.864;24.990;2023-06-14T20:45:25;15.30;58.50
30063;DHT22;16889;67.864;24.990;2023-06-14T20:50:11;14.90;59.20
30063;DHT22;16889;67.864;24.990;2023-06-14T20:54:57;14.70;59.70
30063;DHT22;16889;67.864;24.990;2023-06-14T20:59:44;14.60;58.80
30063;DHT22;16889;67.864;24.990;2023-06-14T21:04:30;14.60;59.70
30063;DHT22;16889;67.864;24.990;2023-06-14T21:09:16;14.70;59.50
30063;DHT22;16889;67.864;24.990;2023-06-14T21:14:02;14.50;60.20
30063;DHT22;16889;67.864;24.990;2023-06-14T21:18:48;14.40;60.60
30063;DHT22;16889;67.864;24.990;2023-06-14T21:23:34;14.30;61.10
30063;DHT22;16889;67.864;24.990;2023-06-14T21:28:20;14.20;62.40
30063;DHT22;16889;67.864;24.990;2023-06-14T21:33:06;14.00;63.20
30063;DHT22;16889;67.864;24.990;2023-06-14T21:37:52;13.90;63.10
30063;DHT22;16889;67.864;24.990;2023-06-14T21:42:38;13.80;61.90
30063;DHT22;16889;67.864;24.990;2023-06-14T21:47:24;13.70;61.20
30063;DHT22;16889;67.864;24.990;2023-06-14T21:52:12;13.50;61.70
30063;DHT22;16889;67.864;24.990;2023-06-14T21:57:02;13.50;62.90
30063;DHT22;16889;67.864;24.990;2023-06-14T22:01:48;13.40;64.00
30063;DHT22;16889;67.864;24.990;2023-06-14T22:06:34;13.20;65.30
30063;DHT22;16889;67.864;24.990;2023-06-14T22:11:20;13.10;66.40
30063;DHT22;16889;67.864;24.990;2023-06-14T22:16:06;12.90;67.60
30063;DHT22;16889;67.864;24.990;2023-06-14T22:20:52;12.80;68.20
30063;DHT22;16889;67.864;24.990;2023-06-14T22:25:39;12.60;67.70
30063;DHT22;16889;67.864;24.990;2023-06-14T22:30:25;12.50;67.80
30063;DHT22;16889;67.864;24.990;2023-06-14T22:35:13;12.30;69.50
30063;DHT22;16889;67.864;24.990;2023-06-14T22:39:59;12.00;72.60
30063;DHT22;16889;67.864;24.990;2023-06-14T22:44:45;11.90;74.00
30063;DHT22;16889;67.864;24.990;2023-06-14T22:49:36;11.70;75.50
30063;DHT22;16889;67.864;24.990;2023-06-14T22:54:24;11.30;78.60
30063;DHT22;16889;67.864;24.990;2023-06-14T22:59:11;11.10;81.80
30063;DHT22;16889;67.864;24.990;2023-06-14T23:03:57;10.80;84.60
30063;DHT22;16889;67.864;24.990;2023-06-14T23:08:46;10.40;89.00
30063;DHT22;16889;67.864;24.990;2023-06-14T23:13:32;10.10;90.30
30063;DHT22;16889;67.864;24.990;2023-06-14T23:18:18;9.80;90.50
30063;DHT22;16889;67.864;24.990;2023-06-14T23:23:04;9.70;91.60
30063;DHT22;16889;67.864;24.990;2023-06-14T23:27:50;9.50;92.40
30063;DHT22;16889;67.864;24.990;2023-06-14T23:32:36;9.30;93.90
30063;DHT22;16889;67.864;24.990;2023-06-14T23:37:23;8.80;96.20
30063;DHT22;16889;67.864;24.990;2023-06-14T23:42:09;8.60;99.20
30063;DHT22;16889;67.864;24.990;2023-06-14T23:46:56;8.60;99.90
30063;DHT22;16889;67.864;24.990;2023-06-14T23:51:42;8.50;99.90
30063;DHT22;16889;67.864;24.990;2023-06-14T23:56:28;8.10;99.90
